sensor_id;sensor_type;location;lat;lon;timestamp;pressure;altitude;pressure_sealevel;temperature;humidity
76794;BME280;65745;50.278;18.192;2023-10-09T00:01:54;100640.99;;;6.61;77.36
76794;BME280;65745;50.278;18.192;2023-10-09T00:04:26;100634.75;;;6.48;79.25
76794;BME280;65745;50.278;18.192;2023-10-09T00:06:59;100625.80;;;6.40;80.21
76794;BME280;65745;50.278;18.192;2023-10-09T00:09:32;100622.89;;;6.40;77.67
76794;BME280;65745;50.278;18.192;2023-10-09T00:12:11;100615.05;;;6.44;75.83
76794;BME280;65745;50.278;18.192;2023-10-09T00:14:45;100600.30;;;6.43;77.48
76794;BME280;65745;50.278;18.192;2023-10-09T00:17:19;100585.14;;;6.42;76.44
76794;BME280;65745;50.278;18.192;2023-10-09T00:20:00;100575.55;;;6.45;75.11
76794;BME280;65745;50.278;18.192;2023-10-09T00:22:48;100563.77;;;6.38;76.79
76794;BME280;65745;50.278;18.192;2023-10-09T00:25:21;100554.15;;;6.30;78.22
76794;BME280;65745;50.278;18.192;2023-10-09T00:27:59;100551.73;;;6.19;79.82
76794;BME280;65745;50.278;18.192;2023-10-09T00:30:40;100559.67;;;6.20;77.06
76794;BME280;65745;50.278;18.192;2023-10-09T00:33:12;100552.90;;;6.22;77.75
76794;BME280;65745;50.278;18.192;2023-10-09T00:35:44;100553.55;;;6.21;77.89
76794;BME280;65745;50.278;18.192;2023-10-09T00:38:25;100556.02;;;6.23;77.08
76794;BME280;65745;50.278;18.192;2023-10-09T00:41:04;100553.59;;;6.25;76.77
76794;BME280;65745;50.278;18.192;2023-10-09T00:43:42;100549.67;;;6.26;77.33
76794;BME280;65745;50.278;18.192;2023-10-09T00:46:14;100544.13;;;6.28;76.13
76794;BME280;65745;50.278;18.192;2023-10-09T00:48:57;100553.70;;;6.27;77.08
76794;BME280;65745;50.278;18.192;2023-10-09T00:51:32;100557.50;;;6.29;75.53
76794;BME280;65745;50.278;18.192;2023-10-09T00:54:08;100548.86;;;6.34;75.82
76794;BME280;65745;50.278;18.192;2023-10-09T00:56:46;100546.02;;;6.32;78.61
76794;BME280;65745;50.278;18.192;2023-10-09T00:59:28;100546.94;;;6.29;77.20
76794;BME280;65745;50.278;18.192;2023-10-09T01:02:02;100545.36;;;6.32;79.36
76794;BME280;65745;50.278;18.192;2023-10-09T01:04:36;100525.41;;;6.26;81.28
76794;BME280;65745;50.278;18.192;2023-10-09T01:07:12;100524.56;;;6.23;81.74
76794;BME280;65745;50.278;18.192;2023-10-09T01:09:46;100530.42;;;6.31;79.25
76794;BME280;65745;50.278;18.192;2023-10-09T01:12:22;100537.83;;;6.32;79.10
76794;BME280;65745;50.278;18.192;2023-10-09T01:14:54;100545.50;;;6.35;78.52
76794;BME280;65745;50.278;18.192;2023-10-09T01:17:30;100530.95;;;6.35;77.59
76794;BME280;65745;50.278;18.192;2023-10-09T01:20:09;100521.94;;;6.39;77.60
76794;BME280;65745;50.278;18.192;2023-10-09T01:22:47;100521.94;;;6.48;77.31
76794;BME280;65745;50.278;18.192;2023-10-09T01:25:21;100523.50;;;6.52;77.27
76794;BME280;65745;50.278;18.192;2023-10-09T01:27:53;100524.95;;;6.57;75.71
76794;BME280;65745;50.278;18.192;2023-10-09T01:30:27;100523.73;;;6.56;77.58
76794;BME280;65745;50.278;18.192;2023-10-09T01:33:00;100519.69;;;6.47;78.17
76794;BME280;65745;50.278;18.192;2023-10-09T01:35:42;100519.42;;;6.41;78.51
76794;BME280;65745;50.278;18.192;2023-10-09T01:38:21;100518.35;;;6.40;77.33
76794;BME280;65745;50.278;18.192;2023-10-09T01:41:02;100519.33;;;6.46;76.79
76794;BME280;65745;50.278;18.192;2023-10-09T01:43:39;100513.42;;;6.52;76.67
76794;BME280;65745;50.278;18.192;2023-10-09T01:46:15;100507.26;;;6.52;77.05
76794;BME280;65745;50.278;18.192;2023-10-09T01:48:50;100514.80;;;6.48;77.25
76794;BME280;65745;50.278;18.192;2023-10-09T01:51:24;100516.95;;;6.47;77.82
76794;BME280;65745;50.278;18.192;2023-10-09T01:54:04;100504.19;;;6.45;79.48
76794;BME280;65745;50.278;18.192;2023-10-09T01:56:36;100502.16;;;6.42;78.86
76794;BME280;65745;50.278;18.192;2023-10-09T01:59:11;100509.94;;;6.43;77.07
76794;BME280;65745;50.278;18.192;2023-10-09T02:01:43;100504.67;;;6.44;77.30
76794;BME280;65745;50.278;18.192;2023-10-09T02:04:18;100502.91;;;6.39;79.54
76794;BME280;65745;50.278;18.192;2023-10-09T02:06:52;100492.22;;;6.41;77.87
76794;BME280;65745;50.278;18.192;2023-10-09T02:09:24;100490.05;;;6.42;76.94
76794;BME280;65745;50.278;18.192;2023-10-09T02:12:02;100494.74;;;6.44;77.47
76794;BME280;65745;50.278;18.192;2023-10-09T02:14:34;100499.92;;;6.41;78.39
76794;BME280;65745;50.278;18.192;2023-10-09T02:17:12;100501.80;;;6.41;78.40
76794;BME280;65745;50.278;18.192;2023-10-09T02:19:49;100504.23;;;6.42;77.74
76794;BME280;65745;50.278;18.192;2023-10-09T02:22:23;100495.11;;;6.41;78.26
76794;BME280;65745;50.278;18.192;2023-10-09T02:24:57;100488.79;;;6.41;77.41
76794;BME280;65745;50.278;18.192;2023-10-09T02:27:36;100491.36;;;6.45;77.65
76794;BME280;65745;50.278;18.192;2023-10-09T02:30:22;100486.95;;;6.42;78.77
76794;BME280;65745;50.278;18.192;2023-10-09T02:32:59;100478.14;;;6.44;77.42
76794;BME280;65745;50.278;18.192;2023-10-09T02:35:37;100484.65;;;6.48;78.09
76794;BME280;65745;50.278;18.192;2023-10-09T02:38:13;100476.54;;;6.46;78.18
76794;BME280;65745;50.278;18.192;2023-10-09T02:40:48;100471.41;;;6.43;78.43
76794;BME280;65745;50.278;18.192;2023-10-09T02:43:47;100463.70;;;6.42;78.75
76794;BME280;65745;50.278;18.192;2023-10-09T02:46:21;100473.69;;;6.44;79.15
76794;BME280;65745;50.278;18.192;2023-10-09T02:49:01;100479.39;;;6.49;77.91
76794;BME280;65745;50.278;18.192;2023-10-09T02:51:39;100462.30;;;6.53;77.82
76794;BME280;65745;50.278;18.192;2023-10-09T02:54:18;100459.95;;;6.58;77.82
76794;BME280;65745;50.278;18.192;2023-10-09T02:56:58;100449.64;;;6.60;79.24
76794;BME280;65745;50.278;18.192;2023-10-09T02:59:38;100443.66;;;6.65;77.65
76794;BME280;65745;50.278;18.192;2023-10-09T03:02:12;100441.14;;;6.73;76.96
76794;BME280;65745;50.278;18.192;2023-10-09T03:04:44;100440.85;;;6.75;77.18
76794;BME280;65745;50.278;18.192;2023-10-09T03:07:16;100430.61;;;6.80;77.18
76794;BME280;65745;50.278;18.192;2023-10-09T03:09:48;100431.95;;;6.83;76.45
76794;BME280;65745;50.278;18.192;2023-10-09T03:12:21;100437.40;;;6.86;76.32
76794;BME280;65745;50.278;18.192;2023-10-09T03:14:57;100431.10;;;6.87;77.07
76794;BME280;65745;50.278;18.192;2023-10-09T03:17:31;100425.05;;;6.85;78.28
76794;BME280;65745;50.278;18.192;2023-10-09T03:20:07;100417.80;;;6.84;78.48
76794;BME280;65745;50.278;18.192;2023-10-09T03:22:43;100402.34;;;6.87;77.60
76794;BME280;65745;50.278;18.192;2023-10-09T03:25:16;100390.81;;;6.93;76.44
76794;BME280;65745;50.278;18.192;2023-10-09T03:27:49;100377.21;;;6.96;77.29
76794;BME280;65745;50.278;18.192;2023-10-09T03:30:23;100368.00;;;6.93;77.55
76794;BME280;65745;50.278;18.192;2023-10-09T03:32:56;100374.98;;;6.92;77.33
76794;BME280;65745;50.278;18.192;2023-10-09T03:35:29;100388.11;;;6.91;77.25
76794;BME280;65745;50.278;18.192;2023-10-09T03:38:04;100388.76;;;6.90;76.74
76794;BME280;65745;50.278;18.192;2023-10-09T03:40:43;100393.17;;;6.89;76.68
76794;BME280;65745;50.278;18.192;2023-10-09T03:43:17;100397.66;;;6.90;77.32
76794;BME280;65745;50.278;18.192;2023-10-09T03:45:49;100394.15;;;6.88;78.00
76794;BME280;65745;50.278;18.192;2023-10-09T03:48:24;100381.80;;;6.87;77.47
76794;BME280;65745;50.278;18.192;2023-10-09T03:51:03;100365.32;;;6.90;77.13
76794;BME280;65745;50.278;18.192;2023-10-09T03:53:42;100354.63;;;6.92;77.46
76794;BME280;65745;50.278;18.192;2023-10-09T03:56:14;100351.04;;;6.92;77.69
76794;BME280;65745;50.278;18.192;2023-10-09T03:58:49;100344.68;;;6.88;77.78
76794;BME280;65745;50.278;18.192;2023-10-09T04:01:21;100338.42;;;6.86;77.88
76794;BME280;65745;50.278;18.192;2023-10-09T04:03:59;100340.85;;;6.86;77.54
76794;BME280;65745;50.278;18.192;2023-10-09T04:06:41;100348.67;;;6.85;77.00
76794;BME280;65745;50.278;18.192;2023-10-09T04:09:13;100350.10;;;6.86;77.75
76794;BME280;65745;50.278;18.192;2023-10-09T04:11:58;100347.23;;;6.88;77.29
76794;BME280;65745;50.278;18.192;2023-10-09T04:14:44;100345.48;;;6.87;78.16
76794;BME280;65745;50.278;18.192;2023-10-09T04:17:21;100336.78;;;6.88;77.92
76794;BME280;65745;50.278;18.192;2023-10-09T04:20:08;100336.70;;;6.86;78.20
76794;BME280;65745;50.278;18.192;2023-10-09T04:23:17;100346.26;;;6.89;79.15
76794;BME280;65745;50.278;18.192;2023-10-09T04:26:04;100339.17;;;6.92;78.75
76794;BME280;65745;50.278;18.192;2023-10-09T04:28:45;100331.83;;;7.00;78.24
76794;BME280;65745;50.278;18.192;2023-10-09T04:31:22;100321.45;;;7.06;78.56
76794;BME280;65745;50.278;18.192;2023-10-09T04:34:04;100318.25;;;7.12;78.53
76794;BME280;65745;50.278;18.192;2023-10-09T04:36:59;100310.22;;;7.16;78.69
76794;BME280;65745;50.278;18.192;2023-10-09T04:39:50;100311.42;;;7.20;78.63
76794;BME280;65745;50.278;18.192;2023-10-09T04:42:42;100314.44;;;7.23;78.89
76794;BME280;65745;50.278;18.192;2023-10-09T04:45:29;100293.95;;;7.30;78.64
76794;BME280;65745;50.278;18.192;2023-10-09T04:48:36;100301.63;;;7.37;78.26
76794;BME280;65745;50.278;18.192;2023-10-09T04:51:17;100288.77;;;7.45;78.09
76794;BME280;65745;50.278;18.192;2023-10-09T04:53:52;100279.23;;;7.48;77.29
76794;BME280;65745;50.278;18.192;2023-10-09T04:56:31;100275.67;;;7.49;77.32
76794;BME280;65745;50.278;18.192;2023-10-09T04:59:04;100277.50;;;7.47;77.06
76794;BME280;65745;50.278;18.192;2023-10-09T05:01:38;100276.89;;;7.44;76.77
76794;BME280;65745;50.278;18.192;2023-10-09T05:04:20;100267.89;;;7.47;76.49
76794;BME280;65745;50.278;18.192;2023-10-09T05:07:09;100264.14;;;7.47;77.00
76794;BME280;65745;50.278;18.192;2023-10-09T05:10:17;100262.95;;;7.52;77.66
76794;BME280;65745;50.278;18.192;2023-10-09T05:12:55;100258.20;;;7.54;77.68
76794;BME280;65745;50.278;18.192;2023-10-09T05:15:28;100249.68;;;7.50;77.84
76794;BME280;65745;50.278;18.192;2023-10-09T05:18:05;100240.90;;;7.45;77.51
76794;BME280;65745;50.278;18.192;2023-10-09T05:20:47;100230.79;;;7.36;78.00
76794;BME280;65745;50.278;18.192;2023-10-09T05:23:36;100233.23;;;7.27;79.19
76794;BME280;65745;50.278;18.192;2023-10-09T05:26:15;100224.98;;;7.27;79.71
76794;BME280;65745;50.278;18.192;2023-10-09T05:29:08;100211.94;;;7.22;80.02
76794;BME280;65745;50.278;18.192;2023-10-09T05:31:50;100209.06;;;7.23;80.24
76794;BME280;65745;50.278;18.192;2023-10-09T05:34:34;100212.88;;;7.23;80.33
76794;BME280;65745;50.278;18.192;2023-10-09T05:37:27;100207.11;;;7.25;79.91
76794;BME280;65745;50.278;18.192;2023-10-09T05:40:05;100209.73;;;7.22;79.79
76794;BME280;65745;50.278;18.192;2023-10-09T05:42:53;100213.23;;;7.24;79.43
76794;BME280;65745;50.278;18.192;2023-10-09T05:45:34;100221.98;;;7.24;79.69
76794;BME280;65745;50.278;18.192;2023-10-09T05:48:24;100224.88;;;7.28;80.13
76794;BME280;65745;50.278;18.192;2023-10-09T05:51:13;100233.48;;;7.34;80.27
76794;BME280;65745;50.278;18.192;2023-10-09T05:54:06;100253.92;;;7.40;80.21
76794;BME280;65745;50.278;18.192;2023-10-09T05:56:54;100266.14;;;7.42;80.40
76794;BME280;65745;50.278;18.192;2023-10-09T06:00:01;100269.61;;;7.47;80.29
76794;BME280;65745;50.278;18.192;2023-10-09T06:02:51;100269.38;;;7.54;79.88
76794;BME280;65745;50.278;18.192;2023-10-09T06:05:41;100277.05;;;7.57;79.84
76794;BME280;65745;50.278;18.192;2023-10-09T06:08:22;100291.41;;;7.61;79.35
76794;BME280;65745;50.278;18.192;2023-10-09T06:10:58;100298.20;;;7.64;80.11
76794;BME280;65745;50.278;18.192;2023-10-09T06:13:59;100295.92;;;7.58;80.80
76794;BME280;65745;50.278;18.192;2023-10-09T06:16:35;100295.90;;;7.53;80.96
76794;BME280;65745;50.278;18.192;2023-10-09T06:19:14;100293.75;;;7.55;80.85
76794;BME280;65745;50.278;18.192;2023-10-09T06:21:58;100285.92;;;7.52;81.00
76794;BME280;65745;50.278;18.192;2023-10-09T06:24:49;100281.61;;;7.52;80.83
76794;BME280;65745;50.278;18.192;2023-10-09T06:27:28;100275.52;;;7.49;80.91
76794;BME280;65745;50.278;18.192;2023-10-09T06:30:27;100271.25;;;7.40;80.93
76794;BME280;65745;50.278;18.192;2023-10-09T06:33:05;100264.09;;;7.37;81.56
76794;BME280;65745;50.278;18.192;2023-10-09T06:36:00;100255.40;;;7.30;82.36
76794;BME280;65745;50.278;18.192;2023-10-09T06:38:39;100246.18;;;7.21;82.54
76794;BME280;65745;50.278;18.192;2023-10-09T06:41:39;100236.23;;;7.16;84.31
76794;BME280;65745;50.278;18.192;2023-10-09T06:44:16;100232.41;;;7.15;84.11
76794;BME280;65745;50.278;18.192;2023-10-09T06:47:08;100228.84;;;7.16;84.14
76794;BME280;65745;50.278;18.192;2023-10-09T06:49:40;100233.94;;;7.15;84.36
76794;BME280;65745;50.278;18.192;2023-10-09T06:52:33;100230.71;;;7.16;84.40
76794;BME280;65745;50.278;18.192;2023-10-09T06:55:18;100233.08;;;7.14;85.42
76794;BME280;65745;50.278;18.192;2023-10-09T06:58:03;100229.50;;;7.19;85.07
76794;BME280;65745;50.278;18.192;2023-10-09T07:00:41;100222.42;;;7.23;85.18
76794;BME280;65745;50.278;18.192;2023-10-09T07:03:42;100214.02;;;7.22;85.18
76794;BME280;65745;50.278;18.192;2023-10-09T07:06:24;100203.45;;;7.19;85.20
76794;BME280;65745;50.278;18.192;2023-10-09T07:09:16;100195.27;;;7.20;84.66
76794;BME280;65745;50.278;18.192;2023-10-09T07:11:52;100192.40;;;7.22;84.69
76794;BME280;65745;50.278;18.192;2023-10-09T07:14:34;100191.55;;;7.22;84.61
76794;BME280;65745;50.278;18.192;2023-10-09T07:17:24;100187.17;;;7.23;84.17
76794;BME280;65745;50.278;18.192;2023-10-09T07:20:14;100183.71;;;7.23;85.39
76794;BME280;65745;50.278;18.192;2023-10-09T07:23:06;100179.36;;;7.21;84.52
76794;BME280;65745;50.278;18.192;2023-10-09T07:25:45;100177.83;;;7.21;85.37
76794;BME280;65745;50.278;18.192;2023-10-09T07:28:31;100175.84;;;7.19;85.50
76794;BME280;65745;50.278;18.192;2023-10-09T07:31:20;100162.80;;;7.18;85.34
76794;BME280;65745;50.278;18.192;2023-10-09T07:34:12;100161.17;;;7.16;85.07
76794;BME280;65745;50.278;18.192;2023-10-09T07:37:23;100152.34;;;7.13;85.31
76794;BME280;65745;50.278;18.192;2023-10-09T07:40:03;100152.95;;;7.20;85.00
76794;BME280;65745;50.278;18.192;2023-10-09T07:42:38;100171.69;;;7.31;84.07
76794;BME280;65745;50.278;18.192;2023-10-09T07:45:15;100186.49;;;7.33;83.63
76794;BME280;65745;50.278;18.192;2023-10-09T07:48:02;100185.64;;;7.29;84.36
76794;BME280;65745;50.278;18.192;2023-10-09T07:50:39;100183.93;;;7.19;84.21
76794;BME280;65745;50.278;18.192;2023-10-09T07:53:20;100183.04;;;7.18;83.87
76794;BME280;65745;50.278;18.192;2023-10-09T07:55:57;100182.35;;;7.23;83.57
76794;BME280;65745;50.278;18.192;2023-10-09T07:58:37;100170.81;;;7.21;83.91
76794;BME280;65745;50.278;18.192;2023-10-09T08:01:17;100150.70;;;7.15;84.38
76794;BME280;65745;50.278;18.192;2023-10-09T08:03:54;100138.65;;;7.13;84.20
76794;BME280;65745;50.278;18.192;2023-10-09T08:06:33;100124.13;;;7.05;85.42
76794;BME280;65745;50.278;18.192;2023-10-09T08:09:33;100122.83;;;7.12;84.64
76794;BME280;65745;50.278;18.192;2023-10-09T08:12:19;100125.57;;;7.12;85.07
76794;BME280;65745;50.278;18.192;2023-10-09T08:15:11;100109.67;;;7.13;84.75
76794;BME280;65745;50.278;18.192;2023-10-09T08:17:54;100083.71;;;7.10;84.75
76794;BME280;65745;50.278;18.192;2023-10-09T08:20:31;100065.72;;;7.05;85.07
76794;BME280;65745;50.278;18.192;2023-10-09T08:23:21;100054.98;;;7.07;85.74
76794;BME280;65745;50.278;18.192;2023-10-09T08:26:04;100048.91;;;7.04;86.20
76794;BME280;65745;50.278;18.192;2023-10-09T08:28:44;100031.66;;;7.01;86.28
76794;BME280;65745;50.278;18.192;2023-10-09T08:31:17;100034.21;;;6.96;86.47
76794;BME280;65745;50.278;18.192;2023-10-09T08:34:16;100031.40;;;6.89;86.93
76794;BME280;65745;50.278;18.192;2023-10-09T08:37:01;100024.39;;;6.84;87.33
76794;BME280;65745;50.278;18.192;2023-10-09T08:39:33;100023.48;;;6.83;87.04
76794;BME280;65745;50.278;18.192;2023-10-09T08:42:07;100015.46;;;6.80;87.03
76794;BME280;65745;50.278;18.192;2023-10-09T08:44:40;100012.04;;;6.80;86.70
76794;BME280;65745;50.278;18.192;2023-10-09T08:47:15;100006.23;;;6.75;86.80
76794;BME280;65745;50.278;18.192;2023-10-09T08:49:47;100003.00;;;6.71;87.83
76794;BME280;65745;50.278;18.192;2023-10-09T08:52:19;99995.17;;;6.77;86.88
76794;BME280;65745;50.278;18.192;2023-10-09T08:54:52;99995.50;;;6.77;87.21
76794;BME280;65745;50.278;18.192;2023-10-09T08:57:24;99997.27;;;6.78;87.39
76794;BME280;65745;50.278;18.192;2023-10-09T08:59:58;99995.98;;;6.80;87.37
76794;BME280;65745;50.278;18.192;2023-10-09T09:02:30;99997.52;;;6.85;87.55
76794;BME280;65745;50.278;18.192;2023-10-09T09:05:18;99999.27;;;6.91;87.65
76794;BME280;65745;50.278;18.192;2023-10-09T09:07:51;99997.28;;;7.02;87.16
76794;BME280;65745;50.278;18.192;2023-10-09T09:10:30;99995.05;;;7.11;86.87
76794;BME280;65745;50.278;18.192;2023-10-09T09:13:07;99997.59;;;7.16;86.72
76794;BME280;65745;50.278;18.192;2023-10-09T09:15:49;99998.29;;;7.21;86.55
76794;BME280;65745;50.278;18.192;2023-10-09T09:18:24;99995.80;;;7.29;87.05
76794;BME280;65745;50.278;18.192;2023-10-09T09:21:02;99992.13;;;7.37;86.95
76794;BME280;65745;50.278;18.192;2023-10-09T09:24:00;99987.54;;;7.42;86.93
76794;BME280;65745;50.278;18.192;2023-10-09T09:26:38;99988.14;;;7.50;86.83
76794;BME280;65745;50.278;18.192;2023-10-09T09:29:16;99989.43;;;7.53;86.47
76794;BME280;65745;50.278;18.192;2023-10-09T09:31:57;99995.95;;;7.43;87.04
76794;BME280;65745;50.278;18.192;2023-10-09T09:34:45;100005.21;;;7.43;86.78
76794;BME280;65745;50.278;18.192;2023-10-09T09:37:23;100007.73;;;7.47;86.61
76794;BME280;65745;50.278;18.192;2023-10-09T09:40:01;100011.13;;;7.51;86.96
76794;BME280;65745;50.278;18.192;2023-10-09T09:42:46;100003.02;;;7.59;86.59
76794;BME280;65745;50.278;18.192;2023-10-09T09:45:20;99995.52;;;7.60;87.38
76794;BME280;65745;50.278;18.192;2023-10-09T09:47:55;99991.39;;;7.60;87.45
76794;BME280;65745;50.278;18.192;2023-10-09T09:50:29;99981.05;;;7.68;86.75
76794;BME280;65745;50.278;18.192;2023-10-09T09:53:03;99978.01;;;7.70;86.77
76794;BME280;65745;50.278;18.192;2023-10-09T09:55:39;99980.58;;;7.70;86.67
76794;BME280;65745;50.278;18.192;2023-10-09T09:58:16;99979.52;;;7.69;86.71
76794;BME280;65745;50.278;18.192;2023-10-09T10:00:52;99977.79;;;7.69;86.78
76794;BME280;65745;50.278;18.192;2023-10-09T10:03:30;99981.66;;;7.67;86.59
76794;BME280;65745;50.278;18.192;2023-10-09T10:06:06;99975.64;;;7.65;86.32
76794;BME280;65745;50.278;18.192;2023-10-09T10:08:42;99975.45;;;7.65;86.30
76794;BME280;65745;50.278;18.192;2023-10-09T10:14:15;99958.21;;;7.62;85.70
76794;BME280;65745;50.278;18.192;2023-10-09T10:17:05;99948.37;;;7.60;86.21
76794;BME280;65745;50.278;18.192;2023-10-09T10:20:06;99951.92;;;7.58;86.22
76794;BME280;65745;50.278;18.192;2023-10-09T10:23:16;99953.17;;;7.60;86.72
76794;BME280;65745;50.278;18.192;2023-10-09T10:25:50;99953.63;;;7.58;86.66
76794;BME280;65745;50.278;18.192;2023-10-09T10:28:31;99948.45;;;7.62;86.20
76794;BME280;65745;50.278;18.192;2023-10-09T10:31:15;99948.98;;;7.68;85.67
76794;BME280;65745;50.278;18.192;2023-10-09T10:34:06;99947.83;;;7.70;85.12
76794;BME280;65745;50.278;18.192;2023-10-09T10:36:40;99944.33;;;7.73;84.21
76794;BME280;65745;50.278;18.192;2023-10-09T10:39:15;99943.68;;;7.75;84.00
76794;BME280;65745;50.278;18.192;2023-10-09T10:41:56;99943.43;;;7.72;83.43
76794;BME280;65745;50.278;18.192;2023-10-09T10:44:31;99936.77;;;7.72;83.61
76794;BME280;65745;50.278;18.192;2023-10-09T10:47:09;99933.55;;;7.79;83.66
76794;BME280;65745;50.278;18.192;2023-10-09T10:49:54;99926.19;;;7.79;83.46
76794;BME280;65745;50.278;18.192;2023-10-09T10:52:30;99920.63;;;7.77;83.78
76794;BME280;65745;50.278;18.192;2023-10-09T10:55:14;99924.73;;;7.82;83.37
76794;BME280;65745;50.278;18.192;2023-10-09T10:58:19;99914.80;;;7.89;82.90
76794;BME280;65745;50.278;18.192;2023-10-09T11:00:56;99903.61;;;7.93;82.94
76794;BME280;65745;50.278;18.192;2023-10-09T11:03:46;99892.14;;;7.99;82.55
76794;BME280;65745;50.278;18.192;2023-10-09T11:06:30;99887.14;;;7.98;82.71
76794;BME280;65745;50.278;18.192;2023-10-09T11:09:12;99884.57;;;7.98;83.06
76794;BME280;65745;50.278;18.192;2023-10-09T11:11:53;99880.63;;;7.98;83.87
76794;BME280;65745;50.278;18.192;2023-10-09T11:14:47;99868.56;;;7.96;84.46
76794;BME280;65745;50.278;18.192;2023-10-09T11:17:37;99853.88;;;7.98;84.33
76794;BME280;65745;50.278;18.192;2023-10-09T11:20:10;99850.52;;;8.00;84.59
76794;BME280;65745;50.278;18.192;2023-10-09T11:22:56;99856.45;;;7.99;84.79
76794;BME280;65745;50.278;18.192;2023-10-09T11:25:47;99852.40;;;8.00;84.86
76794;BME280;65745;50.278;18.192;2023-10-09T11:28:24;99857.79;;;8.02;85.03
76794;BME280;65745;50.278;18.192;2023-10-09T11:31:09;99860.76;;;8.10;84.90
76794;BME280;65745;50.278;18.192;2023-10-09T11:33:47;99855.08;;;8.16;84.70
76794;BME280;65745;50.278;18.192;2023-10-09T11:36:23;99854.02;;;8.15;84.66
76794;BME280;65745;50.278;18.192;2023-10-09T11:39:03;99849.35;;;8.14;84.69
76794;BME280;65745;50.278;18.192;2023-10-09T11:41:48;99847.90;;;8.11;84.90
76794;BME280;65745;50.278;18.192;2023-10-09T11:44:37;99844.75;;;8.09;84.39
76794;BME280;65745;50.278;18.192;2023-10-09T11:47:10;99838.88;;;8.06;84.55
76794;BME280;65745;50.278;18.192;2023-10-09T11:49:57;99832.11;;;8.05;84.63
76794;BME280;65745;50.278;18.192;2023-10-09T11:52:57;99830.23;;;8.05;84.58
76794;BME280;65745;50.278;18.192;2023-10-09T11:55:51;99829.20;;;8.04;84.98
76794;BME280;65745;50.278;18.192;2023-10-09T11:58:24;99830.40;;;8.11;84.61
76794;BME280;65745;50.278;18.192;2023-10-09T12:00:57;99833.23;;;8.15;84.43
76794;BME280;65745;50.278;18.192;2023-10-09T12:03:31;99837.58;;;8.16;84.81
76794;BME280;65745;50.278;18.192;2023-10-09T12:06:04;99836.84;;;8.20;84.36
76794;BME280;65745;50.278;18.192;2023-10-09T12:08:42;99841.64;;;8.20;84.46
76794;BME280;65745;50.278;18.192;2023-10-09T12:11:18;99834.60;;;8.20;84.19
76794;BME280;65745;50.278;18.192;2023-10-09T12:13:54;99839.38;;;8.19;84.32
76794;BME280;65745;50.278;18.192;2023-10-09T12:16:29;99836.19;;;8.21;84.03
76794;BME280;65745;50.278;18.192;2023-10-09T12:19:04;99838.35;;;8.25;83.87
76794;BME280;65745;50.278;18.192;2023-10-09T12:21:40;99839.46;;;8.28;83.79
76794;BME280;65745;50.278;18.192;2023-10-09T12:24:13;99844.87;;;8.30;83.79
76794;BME280;65745;50.278;18.192;2023-10-09T12:26:49;99850.23;;;8.32;83.69
76794;BME280;65745;50.278;18.192;2023-10-09T12:29:24;99845.90;;;8.30;83.21
76794;BME280;65745;50.278;18.192;2023-10-09T12:32:00;99844.84;;;8.35;83.14
76794;BME280;65745;50.278;18.192;2023-10-09T12:34:34;99845.47;;;8.39;82.73
76794;BME280;65745;50.278;18.192;2023-10-09T12:37:09;99841.26;;;8.36;83.70
76794;BME280;65745;50.278;18.192;2023-10-09T12:39:41;99843.96;;;8.34;83.50
76794;BME280;65745;50.278;18.192;2023-10-09T12:42:14;99847.48;;;8.37;83.58
76794;BME280;65745;50.278;18.192;2023-10-09T12:44:47;99845.65;;;8.39;83.29
76794;BME280;65745;50.278;18.192;2023-10-09T12:47:19;99840.35;;;8.40;83.45
76794;BME280;65745;50.278;18.192;2023-10-09T12:49:52;99838.11;;;8.46;83.35
76794;BME280;65745;50.278;18.192;2023-10-09T12:52:24;99824.50;;;8.51;82.88
76794;BME280;65745;50.278;18.192;2023-10-09T12:55:01;99814.30;;;8.54;83.05
76794;BME280;65745;50.278;18.192;2023-10-09T12:57:37;99816.05;;;8.55;83.30
76794;BME280;65745;50.278;18.192;2023-10-09T13:00:10;99814.75;;;8.58;83.32
76794;BME280;65745;50.278;18.192;2023-10-09T13:02:43;99809.69;;;8.56;84.02
76794;BME280;65745;50.278;18.192;2023-10-09T13:05:15;99812.30;;;8.57;83.97
76794;BME280;65745;50.278;18.192;2023-10-09T13:07:57;99815.67;;;8.61;83.81
76794;BME280;65745;50.278;18.192;2023-10-09T13:10:32;99810.02;;;8.61;83.89
76794;BME280;65745;50.278;18.192;2023-10-09T13:13:06;99806.60;;;8.62;83.68
76794;BME280;65745;50.278;18.192;2023-10-09T13:15:38;99799.02;;;8.67;83.34
76794;BME280;65745;50.278;18.192;2023-10-09T13:18:13;99802.73;;;8.65;83.60
76794;BME280;65745;50.278;18.192;2023-10-09T13:20:45;99796.91;;;8.66;83.82
76794;BME280;65745;50.278;18.192;2023-10-09T13:23:17;99794.19;;;8.67;83.52
76794;BME280;65745;50.278;18.192;2023-10-09T13:25:49;99791.89;;;8.71;83.31
76794;BME280;65745;50.278;18.192;2023-10-09T13:28:21;99794.63;;;8.70;84.06
76794;BME280;65745;50.278;18.192;2023-10-09T13:30:54;99788.79;;;8.69;83.23
76794;BME280;65745;50.278;18.192;2023-10-09T13:33:26;99790.43;;;8.67;83.78
76794;BME280;65745;50.278;18.192;2023-10-09T13:36:07;99789.77;;;8.68;83.46
76794;BME280;65745;50.278;18.192;2023-10-09T13:38:47;99783.48;;;8.70;83.37
76794;BME280;65745;50.278;18.192;2023-10-09T13:41:19;99782.80;;;8.71;83.92
76794;BME280;65745;50.278;18.192;2023-10-09T13:43:52;99781.80;;;8.72;83.91
76794;BME280;65745;50.278;18.192;2023-10-09T13:46:24;99787.73;;;8.76;83.31
76794;BME280;65745;50.278;18.192;2023-10-09T13:48:56;99786.08;;;8.78;84.02
76794;BME280;65745;50.278;18.192;2023-10-09T13:51:28;99792.50;;;8.81;83.89
76794;BME280;65745;50.278;18.192;2023-10-09T13:54:04;99798.55;;;8.89;83.25
76794;BME280;65745;50.278;18.192;2023-10-09T13:56:38;99802.23;;;8.92;83.50
76794;BME280;65745;50.278;18.192;2023-10-09T13:59:10;99802.67;;;8.96;83.57
76794;BME280;65745;50.278;18.192;2023-10-09T14:01:42;99805.67;;;9.00;83.33